sensor_id;sensor_type;location;lat;lon;timestamp;temperature;humidity
68248;SHT30;55064;49.636;12.164;2022-08-19T00:00:44;19.94;89.56
68248;SHT30;55064;49.636;12.164;2022-08-19T00:03:09;20.12;87.76
68248;SHT30;55064;49.636;12.164;2022-08-19T00:05:37;20.12;87.02
68248;SHT30;55064;49.636;12.164;2022-08-19T00:08:03;20.17;87.34
68248;SHT30;55064;49.636;12.164;2022-08-19T00:10:31;20.19;87.21
68248;SHT30;55064;49.636;12.164;2022-08-19T00:12:59;20.24;87.26
68248;SHT30;55064;49.636;12.164;2022-08-19T00:15:27;20.05;89.24
68248;SHT30;55064;49.636;12.164;2022-08-19T00:17:53;19.81;90.19
68248;SHT30;55064;49.636;12.164;2022-08-19T00:20:21;19.85;90.28
68248;SHT30;55064;49.636;12.164;2022-08-19T00:22:49;20.01;88.84
68248;SHT30;55064;49.636;12.164;2022-08-19T00:25:15;19.98;88.38
68248;SHT30;55064;49.636;12.164;2022-08-19T00:27:40;20.07;87.53
68248;SHT30;55064;49.636;12.164;2022-08-19T00:30:11;20.09;87.40
68248;SHT30;55064;49.636;12.164;2022-08-19T00:32:39;20.11;86.79
68248;SHT30;55064;49.636;12.164;2022-08-19T00:35:05;20.05;88.71
68248;SHT30;55064;49.636;12.164;2022-08-19T00:37:34;20.00;88.87
68248;SHT30;55064;49.636;12.164;2022-08-19T00:40:04;19.95;88.62
68248;SHT30;55064;49.636;12.164;2022-08-19T00:42:32;20.02;88.12
68248;SHT30;55064;49.636;12.164;2022-08-19T00:44:59;20.02;88.02
68248;SHT30;55064;49.636;12.164;2022-08-19T00:47:25;20.01;87.73
68248;SHT30;55064;49.636;12.164;2022-08-19T00:49:56;19.90;89.22
68248;SHT30;55064;49.636;12.164;2022-08-19T00:52:27;19.80;89.92
68248;SHT30;55064;49.636;12.164;2022-08-19T00:54:57;19.83;88.69
68248;SHT30;55064;49.636;12.164;2022-08-19T00:57:34;19.98;87.92
68248;SHT30;55064;49.636;12.164;2022-08-19T01:00:03;20.01;88.06
68248;SHT30;55064;49.636;12.164;2022-08-19T01:02:32;20.05;87.93
68248;SHT30;55064;49.636;12.164;2022-08-19T01:05:06;20.07;87.64
68248;SHT30;55064;49.636;12.164;2022-08-19T01:07:37;20.11;87.76
68248;SHT30;55064;49.636;12.164;2022-08-19T01:10:09;20.11;87.44
68248;SHT30;55064;49.636;12.164;2022-08-19T01:12:37;20.18;87.43
68248;SHT30;55064;49.636;12.164;2022-08-19T01:15:07;20.17;86.35
68248;SHT30;55064;49.636;12.164;2022-08-19T01:17:38;20.18;86.93
68248;SHT30;55064;49.636;12.164;2022-08-19T01:20:10;20.17;87.66
68248;SHT30;55064;49.636;12.164;2022-08-19T01:25:09;20.21;87.23
68248;SHT30;55064;49.636;12.164;2022-08-19T01:27:43;20.22;88.07
68248;SHT30;55064;49.636;12.164;2022-08-19T01:30:14;20.05;88.41
68248;SHT30;55064;49.636;12.164;2022-08-19T01:32:40;19.98;88.57
68248;SHT30;55064;49.636;12.164;2022-08-19T01:35:06;19.94;89.30
68248;SHT30;55064;49.636;12.164;2022-08-19T01:37:48;19.77;89.75
68248;SHT30;55064;49.636;12.164;2022-08-19T01:40:14;19.75;89.29
68248;SHT30;55064;49.636;12.164;2022-08-19T01:42:39;19.77;90.00
68248;SHT30;55064;49.636;12.164;2022-08-19T01:45:06;19.78;89.72
68248;SHT30;55064;49.636;12.164;2022-08-19T01:47:36;19.66;91.08
68248;SHT30;55064;49.636;12.164;2022-08-19T01:50:06;19.71;91.01
68248;SHT30;55064;49.636;12.164;2022-08-19T01:52:35;19.59;91.28
68248;SHT30;55064;49.636;12.164;2022-08-19T01:55:01;19.53;91.41
68248;SHT30;55064;49.636;12.164;2022-08-19T01:57:26;19.45;92.39
68248;SHT30;55064;49.636;12.164;2022-08-19T01:59:52;19.45;92.22
68248;SHT30;55064;49.636;12.164;2022-08-19T02:02:19;19.42;91.80
68248;SHT30;55064;49.636;12.164;2022-08-19T02:04:45;19.56;90.82
68248;SHT30;55064;49.636;12.164;2022-08-19T02:07:11;19.52;91.78
68248;SHT30;55064;49.636;12.164;2022-08-19T02:09:36;19.43;91.93
68248;SHT30;55064;49.636;12.164;2022-08-19T02:12:03;19.42;92.48
68248;SHT30;55064;49.636;12.164;2022-08-19T02:14:35;19.50;92.15
68248;SHT30;55064;49.636;12.164;2022-08-19T02:17:03;19.53;92.72
68248;SHT30;55064;49.636;12.164;2022-08-19T02:19:29;19.49;91.68
68248;SHT30;55064;49.636;12.164;2022-08-19T02:21:58;19.50;92.38
68248;SHT30;55064;49.636;12.164;2022-08-19T02:24:24;19.59;91.94
68248;SHT30;55064;49.636;12.164;2022-08-19T02:26:50;19.52;91.90
68248;SHT30;55064;49.636;12.164;2022-08-19T02:29:17;19.54;91.48
68248;SHT30;55064;49.636;12.164;2022-08-19T02:31:43;19.46;92.53
68248;SHT30;55064;49.636;12.164;2022-08-19T02:34:13;19.45;92.64
68248;SHT30;55064;49.636;12.164;2022-08-19T02:36:41;19.63;91.20
68248;SHT30;55064;49.636;12.164;2022-08-19T02:39:07;19.78;90.20
68248;SHT30;55064;49.636;12.164;2022-08-19T02:41:34;19.84;90.49
68248;SHT30;55064;49.636;12.164;2022-08-19T02:44:02;19.81;90.87
68248;SHT30;55064;49.636;12.164;2022-08-19T02:46:31;19.77;90.93
68248;SHT30;55064;49.636;12.164;2022-08-19T02:49:03;19.73;90.84
68248;SHT30;55064;49.636;12.164;2022-08-19T02:51:39;19.81;90.11
68248;SHT30;55064;49.636;12.164;2022-08-19T02:54:09;19.84;89.76
68248;SHT30;55064;49.636;12.164;2022-08-19T02:56:36;19.73;90.43
68248;SHT30;55064;49.636;12.164;2022-08-19T02:59:03;19.84;89.66
68248;SHT30;55064;49.636;12.164;2022-08-19T03:01:33;19.84;89.73
68248;SHT30;55064;49.636;12.164;2022-08-19T03:04:01;19.95;89.17
68248;SHT30;55064;49.636;12.164;2022-08-19T03:06:27;19.92;89.50
68248;SHT30;55064;49.636;12.164;2022-08-19T03:08:56;19.92;90.12
68248;SHT30;55064;49.636;12.164;2022-08-19T03:11:24;19.74;91.24
68248;SHT30;55064;49.636;12.164;2022-08-19T03:13:51;19.75;91.05
68248;SHT30;55064;49.636;12.164;2022-08-19T03:16:18;19.71;91.20
68248;SHT30;55064;49.636;12.164;2022-08-19T03:18:46;19.64;91.48
68248;SHT30;55064;49.636;12.164;2022-08-19T03:21:24;19.66;91.68
68248;SHT30;55064;49.636;12.164;2022-08-19T03:23:53;19.57;90.99
68248;SHT30;55064;49.636;12.164;2022-08-19T03:26:21;19.60;91.06
68248;SHT30;55064;49.636;12.164;2022-08-19T03:28:47;19.54;91.34
68248;SHT30;55064;49.636;12.164;2022-08-19T03:31:17;19.47;90.84
68248;SHT30;55064;49.636;12.164;2022-08-19T03:33:47;19.39;91.47
68248;SHT30;55064;49.636;12.164;2022-08-19T03:36:20;19.39;91.59
68248;SHT30;55064;49.636;12.164;2022-08-19T03:38:52;19.35;91.43
68248;SHT30;55064;49.636;12.164;2022-08-19T03:41:27;19.33;91.82
68248;SHT30;55064;49.636;12.164;2022-08-19T03:43:53;19.37;91.64
68248;SHT30;55064;49.636;12.164;2022-08-19T03:46:22;19.29;91.91
68248;SHT30;55064;49.636;12.164;2022-08-19T03:48:53;19.28;92.09
68248;SHT30;55064;49.636;12.164;2022-08-19T03:51:29;19.23;92.33
68248;SHT30;55064;49.636;12.164;2022-08-19T03:54:00;19.25;91.95
68248;SHT30;55064;49.636;12.164;2022-08-19T03:56:27;19.28;92.37
68248;SHT30;55064;49.636;12.164;2022-08-19T03:58:58;19.26;91.83
68248;SHT30;55064;49.636;12.164;2022-08-19T04:01:26;19.25;92.00
68248;SHT30;55064;49.636;12.164;2022-08-19T04:03:55;19.30;91.08
68248;SHT30;55064;49.636;12.164;2022-08-19T04:06:29;19.36;91.67
68248;SHT30;55064;49.636;12.164;2022-08-19T04:08:57;19.32;92.03
68248;SHT30;55064;49.636;12.164;2022-08-19T04:11:33;19.36;91.20
68248;SHT30;55064;49.636;12.164;2022-08-19T04:14:04;19.39;90.76
68248;SHT30;55064;49.636;12.164;2022-08-19T04:16:35;19.49;90.88
68248;SHT30;55064;49.636;12.164;2022-08-19T04:19:04;19.43;91.52
68248;SHT30;55064;49.636;12.164;2022-08-19T04:21:30;19.36;91.40
68248;SHT30;55064;49.636;12.164;2022-08-19T04:23:59;19.33;91.06
68248;SHT30;55064;49.636;12.164;2022-08-19T04:26:34;19.30;91.05
68248;SHT30;55064;49.636;12.164;2022-08-19T04:29:01;19.26;91.66
68248;SHT30;55064;49.636;12.164;2022-08-19T04:31:29;19.28;91.79
68248;SHT30;55064;49.636;12.164;2022-08-19T04:33:59;19.26;91.88
68248;SHT30;55064;49.636;12.164;2022-08-19T04:36:28;19.26;91.92
68248;SHT30;55064;49.636;12.164;2022-08-19T04:38:57;19.36;91.44
68248;SHT30;55064;49.636;12.164;2022-08-19T04:41:23;19.29;92.27
68248;SHT30;55064;49.636;12.164;2022-08-19T04:44:07;19.32;91.76
68248;SHT30;55064;49.636;12.164;2022-08-19T04:46:33;19.28;91.85
68248;SHT30;55064;49.636;12.164;2022-08-19T04:49:03;19.16;92.17
68248;SHT30;55064;49.636;12.164;2022-08-19T04:51:31;19.15;92.17
68248;SHT30;55064;49.636;12.164;2022-08-19T04:54:04;19.25;91.99
68248;SHT30;55064;49.636;12.164;2022-08-19T04:56:30;19.39;90.97
68248;SHT30;55064;49.636;12.164;2022-08-19T04:58:56;19.36;91.30
68248;SHT30;55064;49.636;12.164;2022-08-19T05:01:25;19.39;90.94
68248;SHT30;55064;49.636;12.164;2022-08-19T05:03:51;19.35;90.62
68248;SHT30;55064;49.636;12.164;2022-08-19T05:06:19;19.28;91.22
68248;SHT30;55064;49.636;12.164;2022-08-19T05:08:47;19.32;91.29
68248;SHT30;55064;49.636;12.164;2022-08-19T05:11:16;19.29;91.12
68248;SHT30;55064;49.636;12.164;2022-08-19T05:13:44;19.37;91.24
68248;SHT30;55064;49.636;12.164;2022-08-19T05:16:12;19.37;90.87
68248;SHT30;55064;49.636;12.164;2022-08-19T05:18:38;19.43;91.27
68248;SHT30;55064;49.636;12.164;2022-08-19T05:21:23;19.37;91.35
68248;SHT30;55064;49.636;12.164;2022-08-19T05:24:12;19.42;91.33
68248;SHT30;55064;49.636;12.164;2022-08-19T05:26:41;19.39;91.17
68248;SHT30;55064;49.636;12.164;2022-08-19T05:29:09;19.47;90.56
68248;SHT30;55064;49.636;12.164;2022-08-19T05:31:35;19.64;90.17
68248;SHT30;55064;49.636;12.164;2022-08-19T05:34:04;19.71;89.10
68248;SHT30;55064;49.636;12.164;2022-08-19T05:36:40;19.77;90.25
68248;SHT30;55064;49.636;12.164;2022-08-19T05:39:11;19.66;90.52
68248;SHT30;55064;49.636;12.164;2022-08-19T05:41:42;19.54;90.18
68248;SHT30;55064;49.636;12.164;2022-08-19T05:44:07;19.62;89.44
68248;SHT30;55064;49.636;12.164;2022-08-19T05:46:37;19.66;89.62
68248;SHT30;55064;49.636;12.164;2022-08-19T05:49:05;19.80;89.49
68248;SHT30;55064;49.636;12.164;2022-08-19T05:51:31;19.78;90.01
68248;SHT30;55064;49.636;12.164;2022-08-19T05:54:00;19.66;90.40
68248;SHT30;55064;49.636;12.164;2022-08-19T05:56:28;19.67;90.25
68248;SHT30;55064;49.636;12.164;2022-08-19T05:58:57;19.77;89.14
68248;SHT30;55064;49.636;12.164;2022-08-19T06:01:26;19.73;89.67
68248;SHT30;55064;49.636;12.164;2022-08-19T06:03:52;19.85;88.87
68248;SHT30;55064;49.636;12.164;2022-08-19T06:06:18;19.95;89.58
68248;SHT30;55064;49.636;12.164;2022-08-19T06:08:44;19.66;90.28
68248;SHT30;55064;49.636;12.164;2022-08-19T06:14:01;19.74;89.94
68248;SHT30;55064;49.636;12.164;2022-08-19T06:16:29;19.83;89.19
68248;SHT30;55064;49.636;12.164;2022-08-19T06:18:59;19.80;89.36
68248;SHT30;55064;49.636;12.164;2022-08-19T06:21:29;19.90;89.73
68248;SHT30;55064;49.636;12.164;2022-08-19T06:23:55;19.83;89.44
68248;SHT30;55064;49.636;12.164;2022-08-19T06:26:22;19.95;89.09
68248;SHT30;55064;49.636;12.164;2022-08-19T06:28:48;20.04;88.84
68248;SHT30;55064;49.636;12.164;2022-08-19T06:33:44;20.21;89.25
68248;SHT30;55064;49.636;12.164;2022-08-19T06:36:29;20.09;89.21
68248;SHT30;55064;49.636;12.164;2022-08-19T06:39:04;20.11;89.41
68248;SHT30;55064;49.636;12.164;2022-08-19T06:41:35;20.11;88.55
68248;SHT30;55064;49.636;12.164;2022-08-19T06:44:04;20.09;89.57
68248;SHT30;55064;49.636;12.164;2022-08-19T06:46:29;20.15;89.09
68248;SHT30;55064;49.636;12.164;2022-08-19T06:48:58;20.22;88.28
68248;SHT30;55064;49.636;12.164;2022-08-19T06:51:25;20.33;87.56
68248;SHT30;55064;49.636;12.164;2022-08-19T06:53:54;20.30;87.34
68248;SHT30;55064;49.636;12.164;2022-08-19T06:56:24;20.28;88.29
68248;SHT30;55064;49.636;12.164;2022-08-19T06:58:57;20.38;88.15
68248;SHT30;55064;49.636;12.164;2022-08-19T07:01:23;20.38;87.81
68248;SHT30;55064;49.636;12.164;2022-08-19T07:03:50;20.33;87.29
68248;SHT30;55064;49.636;12.164;2022-08-19T07:06:18;20.39;86.79
68248;SHT30;55064;49.636;12.164;2022-08-19T07:08:48;20.36;86.65
68248;SHT30;55064;49.636;12.164;2022-08-19T07:11:15;20.36;87.09
68248;SHT30;55064;49.636;12.164;2022-08-19T07:13:46;20.45;87.20
68248;SHT30;55064;49.636;12.164;2022-08-19T07:16:16;20.40;86.57
68248;SHT30;55064;49.636;12.164;2022-08-19T07:18:44;20.38;87.19
68248;SHT30;55064;49.636;12.164;2022-08-19T07:21:14;20.30;87.04
68248;SHT30;55064;49.636;12.164;2022-08-19T07:23:43;20.30;86.55
68248;SHT30;55064;49.636;12.164;2022-08-19T07:26:21;20.40;86.79
68248;SHT30;55064;49.636;12.164;2022-08-19T07:28:49;20.35;87.13
68248;SHT30;55064;49.636;12.164;2022-08-19T07:31:19;20.35;87.43
68248;SHT30;55064;49.636;12.164;2022-08-19T07:33:49;20.38;87.10
68248;SHT30;55064;49.636;12.164;2022-08-19T07:36:20;20.39;87.26
68248;SHT30;55064;49.636;12.164;2022-08-19T07:38:49;20.40;87.69
68248;SHT30;55064;49.636;12.164;2022-08-19T07:41:21;20.40;87.07
68248;SHT30;55064;49.636;12.164;2022-08-19T07:43:47;20.47;86.69
68248;SHT30;55064;49.636;12.164;2022-08-19T07:46:17;20.55;86.69
68248;SHT30;55064;49.636;12.164;2022-08-19T07:48:45;20.63;86.88
68248;SHT30;55064;49.636;12.164;2022-08-19T07:51:12;20.67;85.66
68248;SHT30;55064;49.636;12.164;2022-08-19T07:53:41;20.70;85.90
68248;SHT30;55064;49.636;12.164;2022-08-19T07:56:08;20.67;86.81
68248;SHT30;55064;49.636;12.164;2022-08-19T07:58:36;20.74;86.79
68248;SHT30;55064;49.636;12.164;2022-08-19T08:01:07;20.79;86.51
68248;SHT30;55064;49.636;12.164;2022-08-19T08:03:38;20.76;85.35
68248;SHT30;55064;49.636;12.164;2022-08-19T08:06:22;20.76;85.76
68248;SHT30;55064;49.636;12.164;2022-08-19T08:09:09;20.70;86.12
68248;SHT30;55064;49.636;12.164;2022-08-19T08:11:53;20.77;85.24
68248;SHT30;55064;49.636;12.164;2022-08-19T08:14:34;20.79;85.81
68248;SHT30;55064;49.636;12.164;2022-08-19T08:17:03;20.88;85.18
68248;SHT30;55064;49.636;12.164;2022-08-19T08:19:29;20.93;84.85
68248;SHT30;55064;49.636;12.164;2022-08-19T08:21:59;20.90;84.71
68248;SHT30;55064;49.636;12.164;2022-08-19T08:24:29;20.93;84.26
68248;SHT30;55064;49.636;12.164;2022-08-19T08:26:56;20.98;84.09
68248;SHT30;55064;49.636;12.164;2022-08-19T08:29:22;21.02;83.91
68248;SHT30;55064;49.636;12.164;2022-08-19T08:31:47;21.01;84.57
68248;SHT30;55064;49.636;12.164;2022-08-19T08:34:13;20.98;84.41
68248;SHT30;55064;49.636;12.164;2022-08-19T08:36:46;21.12;84.12
68248;SHT30;55064;49.636;12.164;2022-08-19T08:39:20;21.17;84.24
68248;SHT30;55064;49.636;12.164;2022-08-19T08:42:09;21.25;83.19
68248;SHT30;55064;49.636;12.164;2022-08-19T08:45:00;21.29;82.26
68248;SHT30;55064;49.636;12.164;2022-08-19T08:47:30;21.32;81.85
68248;SHT30;55064;49.636;12.164;2022-08-19T08:50:13;21.22;82.00
68248;SHT30;55064;49.636;12.164;2022-08-19T08:52:52;21.21;82.36
68248;SHT30;55064;49.636;12.164;2022-08-19T08:55:29;21.05;82.26
68248;SHT30;55064;49.636;12.164;2022-08-19T08:58:25;21.10;82.23
68248;SHT30;55064;49.636;12.164;2022-08-19T09:00:51;21.18;81.57
68248;SHT30;55064;49.636;12.164;2022-08-19T09:03:23;21.17;80.93
68248;SHT30;55064;49.636;12.164;2022-08-19T09:06:12;21.28;80.94
68248;SHT30;55064;49.636;12.164;2022-08-19T09:11:28;21.52;80.22
68248;SHT30;55064;49.636;12.164;2022-08-19T09:14:15;21.63;80.08
68248;SHT30;55064;49.636;12.164;2022-08-19T09:16:44;21.79;79.99
68248;SHT30;55064;49.636;12.164;2022-08-19T09:19:10;21.96;79.67
68248;SHT30;55064;49.636;12.164;2022-08-19T09:21:38;22.14;79.15
68248;SHT30;55064;49.636;12.164;2022-08-19T09:24:06;22.24;78.31
68248;SHT30;55064;49.636;12.164;2022-08-19T09:26:32;22.14;79.12
68248;SHT30;55064;49.636;12.164;2022-08-19T09:28:58;22.11;78.70
68248;SHT30;55064;49.636;12.164;2022-08-19T09:31:28;22.17;78.52
68248;SHT30;55064;49.636;12.164;2022-08-19T09:33:55;22.24;79.06
68248;SHT30;55064;49.636;12.164;2022-08-19T09:36:25;22.27;79.00
68248;SHT30;55064;49.636;12.164;2022-08-19T09:38:52;22.27;78.88
68248;SHT30;55064;49.636;12.164;2022-08-19T09:41:20;22.35;78.71
68248;SHT30;55064;49.636;12.164;2022-08-19T09:43:49;22.32;78.86
68248;SHT30;55064;49.636;12.164;2022-08-19T09:46:18;22.39;79.44
68248;SHT30;55064;49.636;12.164;2022-08-19T09:48:46;22.24;79.47
68248;SHT30;55064;49.636;12.164;2022-08-19T09:51:15;22.22;78.95
68248;SHT30;55064;49.636;12.164;2022-08-19T09:53:42;22.34;78.66
68248;SHT30;55064;49.636;12.164;2022-08-19T09:56:11;22.59;77.24
68248;SHT30;55064;49.636;12.164;2022-08-19T09:58:40;22.59;76.29
68248;SHT30;55064;49.636;12.164;2022-08-19T10:01:14;22.59;76.77
68248;SHT30;55064;49.636;12.164;2022-08-19T10:03:42;22.17;77.68
68248;SHT30;55064;49.636;12.164;2022-08-19T10:06:10;22.18;77.84
68248;SHT30;55064;49.636;12.164;2022-08-19T10:08:38;22.27;77.79
68248;SHT30;55064;49.636;12.164;2022-08-19T10:11:05;22.28;77.60
68248;SHT30;55064;49.636;12.164;2022-08-19T10:13:35;22.30;77.68
68248;SHT30;55064;49.636;12.164;2022-08-19T10:16:06;22.34;77.41
68248;SHT30;55064;49.636;12.164;2022-08-19T10:18:35;22.44;77.35
68248;SHT30;55064;49.636;12.164;2022-08-19T10:21:10;22.58;77.21
68248;SHT30;55064;49.636;12.164;2022-08-19T10:23:38;22.63;76.68
68248;SHT30;55064;49.636;12.164;2022-08-19T10:26:05;22.56;76.75
68248;SHT30;55064;49.636;12.164;2022-08-19T10:28:33;22.56;77.07
68248;SHT30;55064;49.636;12.164;2022-08-19T10:31:02;22.58;76.05
68248;SHT30;55064;49.636;12.164;2022-08-19T10:33:27;22.60;76.20
68248;SHT30;55064;49.636;12.164;2022-08-19T10:36:00;22.56;76.62
68248;SHT30;55064;49.636;12.164;2022-08-19T10:38:26;22.53;77.29
68248;SHT30;55064;49.636;12.164;2022-08-19T10:40:51;22.62;77.17
68248;SHT30;55064;49.636;12.164;2022-08-19T10:43:20;22.68;75.84
68248;SHT30;55064;49.636;12.164;2022-08-19T10:45:54;22.72;75.73
68248;SHT30;55064;49.636;12.164;2022-08-19T10:48:28;22.77;76.03
68248;SHT30;55064;49.636;12.164;2022-08-19T10:50:54;22.86;75.87
68248;SHT30;55064;49.636;12.164;2022-08-19T10:53:37;22.90;75.09
68248;SHT30;55064;49.636;12.164;2022-08-19T10:56:05;23.00;75.46
68248;SHT30;55064;49.636;12.164;2022-08-19T10:58:49;22.94;75.62
68248;SHT30;55064;49.636;12.164;2022-08-19T11:01:17;23.06;75.85
68248;SHT30;55064;49.636;12.164;2022-08-19T11:03:43;23.03;75.79
68248;SHT30;55064;49.636;12.164;2022-08-19T11:06:10;22.85;75.91
68248;SHT30;55064;49.636;12.164;2022-08-19T11:08:36;22.77;76.41
68248;SHT30;55064;49.636;12.164;2022-08-19T11:11:06;22.83;76.20
68248;SHT30;55064;49.636;12.164;2022-08-19T11:13:35;22.76;76.37
68248;SHT30;55064;49.636;12.164;2022-08-19T11:16:09;22.77;76.59
68248;SHT30;55064;49.636;12.164;2022-08-19T11:18:39;22.82;76.19
68248;SHT30;55064;49.636;12.164;2022-08-19T11:21:13;22.77;76.60
68248;SHT30;55064;49.636;12.164;2022-08-19T11:23:39;22.82;76.03
68248;SHT30;55064;49.636;12.164;2022-08-19T11:26:04;22.72;75.84
68248;SHT30;55064;49.636;12.164;2022-08-19T11:28:30;22.56;76.14
68248;SHT30;55064;49.636;12.164;2022-08-19T11:30:58;22.56;75.89
68248;SHT30;55064;49.636;12.164;2022-08-19T11:33:25;22.62;77.19
68248;SHT30;55064;49.636;12.164;2022-08-19T11:35:53;22.55;77.14
68248;SHT30;55064;49.636;12.164;2022-08-19T11:38:21;22.60;76.66
68248;SHT30;55064;49.636;12.164;2022-08-19T11:40:54;22.60;76.76
68248;SHT30;55064;49.636;12.164;2022-08-19T11:43:19;22.59;76.69
68248;SHT30;55064;49.636;12.164;2022-08-19T11:45:45;22.58;75.89
68248;SHT30;55064;49.636;12.164;2022-08-19T11:48:13;22.53;76.26
68248;SHT30;55064;49.636;12.164;2022-08-19T11:50:40;22.52;76.18
68248;SHT30;55064;49.636;12.164;2022-08-19T11:53:08;22.48;77.02
68248;SHT30;55064;49.636;12.164;2022-08-19T11:55:37;22.39;77.05
68248;SHT30;55064;49.636;12.164;2022-08-19T11:58:06;22.35;77.03
68248;SHT30;55064;49.636;12.164;2022-08-19T12:00:34;22.35;76.99
68248;SHT30;55064;49.636;12.164;2022-08-19T12:03:04;22.38;77.33
68248;SHT30;55064;49.636;12.164;2022-08-19T12:05:29;22.38;77.80
68248;SHT30;55064;49.636;12.164;2022-08-19T12:07:59;22.24;78.13
68248;SHT30;55064;49.636;12.164;2022-08-19T12:10:25;22.22;78.26
68248;SHT30;55064;49.636;12.164;2022-08-19T12:12:52;22.24;79.03
68248;SHT30;55064;49.636;12.164;2022-08-19T12:15:18;22.24;79.87
68248;SHT30;55064;49.636;12.164;2022-08-19T12:17:45;22.21;80.16
68248;SHT30;55064;49.636;12.164;2022-08-19T12:20:12;22.24;79.99
68248;SHT30;55064;49.636;12.164;2022-08-19T12:22:41;22.32;79.53
68248;SHT30;55064;49.636;12.164;2022-08-19T12:25:07;22.24;79.63
68248;SHT30;55064;49.636;12.164;2022-08-19T12:27:33;22.20;78.46
68248;SHT30;55064;49.636;12.164;2022-08-19T12:30:01;22.24;78.97
68248;SHT30;55064;49.636;12.164;2022-08-19T12:32:27;22.38;78.73
68248;SHT30;55064;49.636;12.164;2022-08-19T12:34:52;22.42;78.92
68248;SHT30;55064;49.636;12.164;2022-08-19T12:37:23;22.49;78.21
68248;SHT30;55064;49.636;12.164;2022-08-19T12:39:48;22.59;78.12
68248;SHT30;55064;49.636;12.164;2022-08-19T12:42:14;22.62;77.15
68248;SHT30;55064;49.636;12.164;2022-08-19T12:44:41;22.58;77.47
68248;SHT30;55064;49.636;12.164;2022-08-19T12:47:11;22.58;77.50
68248;SHT30;55064;49.636;12.164;2022-08-19T12:49:40;22.69;77.13
68248;SHT30;55064;49.636;12.164;2022-08-19T12:52:07;22.58;76.71
68248;SHT30;55064;49.636;12.164;2022-08-19T12:54:37;22.58;77.27
68248;SHT30;55064;49.636;12.164;2022-08-19T12:57:06;22.52;77.34
68248;SHT30;55064;49.636;12.164;2022-08-19T12:59:38;22.55;77.21
68248;SHT30;55064;49.636;12.164;2022-08-19T13:02:07;22.52;77.26
68248;SHT30;55064;49.636;12.164;2022-08-19T13:04:36;22.66;77.69
68248;SHT30;55064;49.636;12.164;2022-08-19T13:07:06;22.69;76.81
68248;SHT30;55064;49.636;12.164;2022-08-19T13:09:31;22.63;76.70
68248;SHT30;55064;49.636;12.164;2022-08-19T13:11:57;22.59;76.58
68248;SHT30;55064;49.636;12.164;2022-08-19T13:14:22;22.62;76.54
68248;SHT30;55064;49.636;12.164;2022-08-19T13:16:48;22.62;76.82
68248;SHT30;55064;49.636;12.164;2022-08-19T13:19:13;22.69;76.76
68248;SHT30;55064;49.636;12.164;2022-08-19T13:21:38;22.82;76.08
68248;SHT30;55064;49.636;12.164;2022-08-19T13:24:06;22.85;76.36
68248;SHT30;55064;49.636;12.164;2022-08-19T13:26:32;22.90;75.81
68248;SHT30;55064;49.636;12.164;2022-08-19T13:28:57;23.02;75.63
68248;SHT30;55064;49.636;12.164;2022-08-19T13:31:41;23.13;75.19
68248;SHT30;55064;49.636;12.164;2022-08-19T13:34:37;23.07;74.78
68248;SHT30;55064;49.636;12.164;2022-08-19T13:37:03;23.11;75.24
68248;SHT30;55064;49.636;12.164;2022-08-19T13:39:30;23.17;74.85
68248;SHT30;55064;49.636;12.164;2022-08-19T13:41:57;23.13;74.91
68248;SHT30;55064;49.636;12.164;2022-08-19T13:44:26;23.10;74.99
68248;SHT30;55064;49.636;12.164;2022-08-19T13:46:59;23.00;74.93
68248;SHT30;55064;49.636;12.164;2022-08-19T13:49:25;23.06;74.85
68248;SHT30;55064;49.636;12.164;2022-08-19T13:51:50;23.15;74.97
68248;SHT30;55064;49.636;12.164;2022-08-19T13:54:15;23.30;74.21
68248;SHT30;55064;49.636;12.164;2022-08-19T13:56:43;23.15;74.74
68248;SHT30;55064;49.636;12.164;2022-08-19T13:59:09;23.10;74.78
68248;SHT30;55064;49.636;12.164;2022-08-19T14:01:34;22.94;75.12
68248;SHT30;55064;49.636;12.164;2022-08-19T14:04:00;22.92;75.21
68248;SHT30;55064;49.636;12.164;2022-08-19T14:06:27;22.90;74.96
68248;SHT30;55064;49.636;12.164;2022-08-19T14:08:53;22.90;75.18
68248;SHT30;55064;49.636;12.164;2022-08-19T14:11:21;22.99;74.65
68248;SHT30;55064;49.636;12.164;2022-08-19T14:13:48;23.00;74.97
68248;SHT30;55064;49.636;12.164;2022-08-19T14:16:17;23.07;74.94
68248;SHT30;55064;49.636;12.164;2022-08-19T14:18:42;23.21;74.31
68248;SHT30;55064;49.636;12.164;2022-08-19T14:21:17;23.35;73.81
68248;SHT30;55064;49.636;12.164;2022-08-19T14:23:45;23.38;73.55
68248;SHT30;55064;49.636;12.164;2022-08-19T14:26:14;23.40;73.13
68248;SHT30;55064;49.636;12.164;2022-08-19T14:28:40;23.41;73.27
68248;SHT30;55064;49.636;12.164;2022-08-19T14:31:10;23.34;73.45
68248;SHT30;55064;49.636;12.164;2022-08-19T14:33:38;23.30;73.40
68248;SHT30;55064;49.636;12.164;2022-08-19T14:36:10;23.25;73.77
68248;SHT30;55064;49.636;12.164;2022-08-19T14:38:37;23.14;74.11
68248;SHT30;55064;49.636;12.164;2022-08-19T14:41:23;23.07;74.02
68248;SHT30;55064;49.636;12.164;2022-08-19T14:43:51;22.96;74.25
68248;SHT30;55064;49.636;12.164;2022-08-19T14:46:19;23.02;74.48
68248;SHT30;55064;49.636;12.164;2022-08-19T14:48:48;22.93;74.05
68248;SHT30;55064;49.636;12.164;2022-08-19T14:51:20;22.90;74.28
68248;SHT30;55064;49.636;12.164;2022-08-19T14:53:46;22.92;74.11
68248;SHT30;55064;49.636;12.164;2022-08-19T14:56:17;22.85;73.69
68248;SHT30;55064;49.636;12.164;2022-08-19T14:58:44;22.79;74.22
68248;SHT30;55064;49.636;12.164;2022-08-19T15:01:12;22.63;74.87
68248;SHT30;55064;49.636;12.164;2022-08-19T15:03:39;22.69;74.70
68248;SHT30;55064;49.636;12.164;2022-08-19T15:06:06;22.73;74.91
68248;SHT30;55064;49.636;12.164;2022-08-19T15:08:34;22.72;74.87
68248;SHT30;55064;49.636;12.164;2022-08-19T15:11:11;22.69;74.64
68248;SHT30;55064;49.636;12.164;2022-08-19T15:13:38;22.62;74.71
68248;SHT30;55064;49.636;12.164;2022-08-19T15:16:04;22.53;74.69
68248;SHT30;55064;49.636;12.164;2022-08-19T15:18:30;22.49;74.90
68248;SHT30;55064;49.636;12.164;2022-08-19T15:20:58;22.41;75.11
68248;SHT30;55064;49.636;12.164;2022-08-19T15:23:26;22.31;75.75
68248;SHT30;55064;49.636;12.164;2022-08-19T15:25:52;22.30;75.55
68248;SHT30;55064;49.636;12.164;2022-08-19T15:28:22;22.18;75.80
68248;SHT30;55064;49.636;12.164;2022-08-19T15:30:47;22.08;76.17
68248;SHT30;55064;49.636;12.164;2022-08-19T15:33:15;22.11;76.08
68248;SHT30;55064;49.636;12.164;2022-08-19T15:35:49;22.03;76.30
68248;SHT30;55064;49.636;12.164;2022-08-19T15:38:21;21.97;76.45